createdAt,value
2016-07-25T00:00:05.099Z,0
2016-07-25T00:01:05.101Z,0
2016-07-25T00:02:05.794Z,0
2016-07-25T00:03:05.082Z,0
2016-07-25T00:04:05.083Z,0
2016-07-25T00:05:05.076Z,0
2016-07-25T00:06:05.777Z,0
2016-07-25T00:07:05.772Z,0
2016-07-25T00:08:05.043Z,0
2016-07-25T00:09:05.055Z,0
2016-07-25T00:10:05.040Z,0
2016-07-25T00:11:04.314Z,0
2016-07-25T00:12:05.731Z,0
2016-07-25T00:13:04.312Z,0
2016-07-25T00:14:05.718Z,0
2016-07-25T00:15:05.702Z,0
2016-07-25T00:16:04.997Z,0
2016-07-25T00:17:05.687Z,0
2016-07-25T00:18:05.738Z,0
2016-07-25T00:19:05.699Z,0
2016-07-25T00:20:04.960Z,0
2016-07-25T00:21:05.668Z,0
2016-07-25T00:22:04.947Z,0
2016-07-25T00:23:06.364Z,0
2016-07-25T00:24:05.639Z,0
2016-07-25T00:25:05.638Z,0
2016-07-25T00:26:05.627Z,0
2016-07-25T00:27:05.624Z,0
2016-07-25T00:28:07.023Z,0
2016-07-25T00:29:05.618Z,0
2016-07-25T00:30:06.305Z,0
2016-07-25T00:31:05.594Z,0
2016-07-25T00:32:05.588Z,0
2016-07-25T00:33:05.619Z,0
2016-07-25T00:34:04.151Z,0
2016-07-25T00:35:04.863Z,0
2016-07-25T00:36:05.552Z,0
2016-07-25T00:37:06.253Z,0
2016-07-25T00:38:05.539Z,0
2016-07-25T00:39:04.116Z,0
2016-07-25T00:40:04.114Z,0
2016-07-25T00:41:04.814Z,0
2016-07-25T00:42:04.099Z,0
2016-07-25T00:43:04.101Z,0
2016-07-25T00:44:04.992Z,0
2016-07-25T00:45:04.788Z,0
2016-07-25T00:46:04.975Z,0
2016-07-25T00:47:04.805Z,0
2016-07-25T00:48:04.764Z,0
2016-07-25T00:49:04.759Z,0
2016-07-25T00:50:05.454Z,0
2016-07-25T00:51:04.038Z,0
2016-07-25T00:52:04.740Z,0
2016-07-25T00:53:04.732Z,0
2016-07-25T00:54:04.718Z,0
2016-07-25T00:55:04.720Z,0
2016-07-25T00:56:06.116Z,0
2016-07-25T00:57:04.701Z,0
2016-07-25T00:58:03.985Z,0
2016-07-25T00:59:04.693Z,0
2016-07-25T01:00:05.384Z,0
2016-07-25T01:01:04.672Z,0
2016-07-25T01:02:05.382Z,0
2016-07-25T01:03:04.658Z,0
2016-07-25T01:04:03.939Z,0
2016-07-25T01:05:03.939Z,0
2016-07-25T01:06:04.637Z,0
2016-07-25T01:07:04.631Z,0
2016-07-25T01:08:04.612Z,0
2016-07-25T01:09:03.908Z,0
2016-07-25T01:10:04.599Z,0
2016-07-25T01:11:05.308Z,0
2016-07-25T01:12:05.295Z,0
2016-07-25T01:13:04.599Z,0
2016-07-25T01:14:05.280Z,0
2016-07-25T01:15:04.571Z,0
2016-07-25T01:16:04.553Z,0
2016-07-25T01:17:04.553Z,0
2016-07-25T01:18:05.248Z,0
2016-07-25T01:19:05.953Z,0
2016-07-25T01:20:05.241Z,0
2016-07-25T01:21:04.524Z,0
2016-07-25T01:22:05.230Z,0
2016-07-25T01:23:05.929Z,0
2016-07-25T01:24:04.510Z,0
2016-07-25T01:25:04.507Z,0
2016-07-25T01:26:05.199Z,0
2016-07-25T01:27:05.189Z,0
2016-07-25T01:28:06.597Z,0
2016-07-25T01:29:04.473Z,0
2016-07-25T01:30:05.168Z,0
2016-07-25T01:31:04.451Z,0
2016-07-25T01:32:04.446Z,0
2016-07-25T01:33:04.436Z,0
2016-07-25T01:34:05.132Z,0
2016-07-25T01:35:04.476Z,0
2016-07-25T01:36:04.413Z,0
2016-07-25T01:37:04.399Z,0
2016-07-25T01:38:03.692Z,0
2016-07-25T01:39:05.094Z,0
2016-07-25T01:40:04.385Z,0
2016-07-25T01:41:05.091Z,0
2016-07-25T01:42:04.371Z,0
2016-07-25T01:43:05.075Z,0
2016-07-25T01:44:03.654Z,0
2016-07-25T01:45:05.068Z,0
2016-07-25T01:46:05.767Z,0
2016-07-25T01:47:05.043Z,0
2016-07-25T01:48:05.044Z,0
2016-07-25T01:49:05.026Z,0
2016-07-25T01:50:05.027Z,0
2016-07-25T01:51:05.013Z,0
2016-07-25T01:52:04.289Z,0
2016-07-25T01:53:04.288Z,0
2016-07-25T01:54:04.276Z,0
2016-07-25T01:55:05.695Z,0
2016-07-25T01:56:04.285Z,0
2016-07-25T01:57:04.966Z,0
2016-07-25T01:58:03.545Z,0
2016-07-25T01:59:04.948Z,0
2016-07-25T02:00:04.238Z,0
2016-07-25T02:01:04.225Z,0
2016-07-25T02:02:04.216Z,0
2016-07-25T02:03:04.214Z,0
2016-07-25T02:04:04.911Z,0
2016-07-25T02:05:04.213Z,0
2016-07-25T02:06:05.609Z,0
2016-07-25T02:07:04.184Z,0
2016-07-25T02:08:03.469Z,0
2016-07-25T02:09:05.582Z,0
2016-07-25T02:10:04.162Z,0
2016-07-25T02:11:04.150Z,0
2016-07-25T02:12:05.559Z,0
2016-07-25T02:13:04.841Z,0
2016-07-25T02:14:04.151Z,0
2016-07-25T02:15:05.538Z,0
2016-07-25T02:16:05.551Z,0
2016-07-25T02:17:04.817Z,0
2016-07-25T02:18:04.105Z,0
2016-07-25T02:19:03.382Z,0
2016-07-25T02:20:04.092Z,0
2016-07-25T02:21:04.080Z,0
2016-07-25T02:22:04.076Z,0
2016-07-25T02:23:04.060Z,0
2016-07-25T02:24:04.063Z,0
2016-07-25T02:25:04.051Z,0
2016-07-25T02:26:04.762Z,0
2016-07-25T02:27:04.741Z,0
2016-07-25T02:28:04.749Z,0
2016-07-25T02:29:03.311Z,0
2016-07-25T02:30:04.015Z,0
2016-07-25T02:31:06.137Z,0
2016-07-25T02:32:03.999Z,0
2016-07-25T02:33:04.703Z,0
2016-07-25T02:34:04.696Z,0
2016-07-25T02:35:04.689Z,0
2016-07-25T02:36:03.966Z,0
2016-07-25T02:37:04.664Z,0
2016-07-25T02:38:03.974Z,0
2016-07-25T02:39:03.948Z,0
2016-07-25T02:40:04.652Z,0
2016-07-25T02:41:03.941Z,0
2016-07-25T02:42:03.950Z,0
2016-07-25T02:43:03.917Z,0
2016-07-25T02:44:05.526Z,0
2016-07-25T02:45:03.903Z,0
2016-07-25T02:46:04.603Z,0
2016-07-25T02:47:03.887Z,0
2016-07-25T02:48:05.297Z,0
2016-07-25T02:49:03.876Z,0
2016-07-25T02:50:03.213Z,0
2016-07-25T02:51:03.858Z,0
2016-07-25T02:52:05.282Z,0
2016-07-25T02:53:04.554Z,0
2016-07-25T02:54:03.851Z,0
2016-07-25T02:55:05.243Z,0
2016-07-25T02:56:04.536Z,0
2016-07-25T02:57:04.515Z,0
2016-07-25T02:58:05.226Z,0
2016-07-25T02:59:04.512Z,0
2016-07-25T03:00:05.918Z,0
2016-07-25T03:01:03.078Z,0
2016-07-25T03:02:04.485Z,0
2016-07-25T03:03:04.481Z,0
2016-07-25T03:04:03.052Z,0
2016-07-25T03:05:03.045Z,0
2016-07-25T03:06:04.455Z,0
2016-07-25T03:07:04.449Z,0
2016-07-25T03:08:03.730Z,0
2016-07-25T03:09:04.436Z,0
2016-07-25T03:10:04.430Z,0
2016-07-25T03:11:05.848Z,0
2016-07-25T03:12:05.107Z,0
2016-07-25T03:13:03.695Z,0
2016-07-25T03:14:04.391Z,0
2016-07-25T03:15:04.390Z,0
2016-07-25T03:16:03.665Z,0
2016-07-25T03:17:03.667Z,0
2016-07-25T03:18:03.647Z,0
2016-07-25T03:19:03.649Z,0
2016-07-25T03:20:04.340Z,0
2016-07-25T03:21:03.632Z,0
2016-07-25T03:22:04.333Z,0
2016-07-25T03:23:04.324Z,0
2016-07-25T03:24:03.603Z,0
2016-07-25T03:25:04.311Z,0
2016-07-25T03:26:04.299Z,0
2016-07-25T03:27:04.300Z,0
2016-07-25T03:28:05.000Z,0
2016-07-25T03:29:04.280Z,0
2016-07-25T03:30:03.558Z,0
2016-07-25T03:31:03.558Z,0
2016-07-25T03:32:04.962Z,0
2016-07-25T03:33:03.538Z,0
2016-07-25T03:34:04.238Z,0
2016-07-25T03:35:04.233Z,0
2016-07-25T03:36:03.520Z,0
2016-07-25T03:37:04.926Z,0
2016-07-25T03:38:03.499Z,0
2016-07-25T03:39:03.504Z,0
2016-07-25T03:40:03.482Z,0
2016-07-25T03:41:04.188Z,0
2016-07-25T03:42:04.176Z,0
2016-07-25T03:43:04.182Z,0
2016-07-25T03:44:02.757Z,0
2016-07-25T03:45:03.558Z,0
2016-07-25T03:46:02.743Z,0
2016-07-25T03:47:05.822Z,0
2016-07-25T03:48:03.424Z,0
2016-07-25T03:49:04.120Z,0
2016-07-25T03:50:04.822Z,0
2016-07-25T03:51:04.829Z,5
2016-07-25T03:52:02.690Z,5
2016-07-25T03:53:03.387Z,5
2016-07-25T03:54:03.373Z,5
2016-07-25T03:55:04.083Z,5
2016-07-25T03:56:02.658Z,5
2016-07-25T03:57:04.780Z,5
2016-07-25T03:58:04.060Z,5
2016-07-25T03:59:03.357Z,10
2016-07-25T04:00:03.345Z,10
2016-07-25T04:01:04.038Z,10
2016-07-25T04:02:04.022Z,10
2016-07-25T04:03:03.315Z,15
2016-07-25T04:04:02.593Z,15
2016-07-25T04:05:04.712Z,15
2016-07-25T04:06:03.284Z,15
2016-07-25T04:07:04.699Z,15
2016-07-25T04:08:03.274Z,20
2016-07-25T04:09:03.277Z,20
2016-07-25T04:10:05.392Z,20
2016-07-25T04:11:03.253Z,20
2016-07-25T04:12:04.667Z,20
2016-07-25T04:13:02.531Z,20
2016-07-25T04:14:02.517Z,20
2016-07-25T04:15:03.947Z,20
2016-07-25T04:16:03.919Z,20
2016-07-25T04:17:04.644Z,25
2016-07-25T04:18:04.608Z,25
2016-07-25T04:19:02.492Z,25
2016-07-25T04:20:03.897Z,25
2016-07-25T04:21:03.181Z,25
2016-07-25T04:22:03.873Z,25
2016-07-25T04:23:02.468Z,25
2016-07-25T04:24:04.565Z,30
2016-07-25T04:25:03.150Z,30
2016-07-25T04:26:03.140Z,30
2016-07-25T04:27:03.848Z,35
2016-07-25T04:28:03.129Z,35
2016-07-25T04:29:03.827Z,35
2016-07-25T04:30:03.113Z,40
2016-07-25T04:31:03.104Z,40
2016-07-25T04:32:03.097Z,40
2016-07-25T04:33:03.094Z,40
2016-07-25T04:34:04.498Z,40
2016-07-25T04:35:03.778Z,40
2016-07-25T04:36:03.769Z,40
2016-07-25T04:37:04.685Z,40
2016-07-25T04:38:03.055Z,40
2016-07-25T04:39:03.761Z,45
2016-07-25T04:40:03.039Z,45
2016-07-25T04:41:03.040Z,45
2016-07-25T04:42:04.436Z,50
2016-07-25T04:43:04.420Z,50
2016-07-25T04:44:03.712Z,45
2016-07-25T04:45:02.987Z,45
2016-07-25T04:46:03.696Z,45
2016-07-25T04:47:02.980Z,45
2016-07-25T04:48:03.683Z,45
2016-07-25T04:49:02.960Z,45
2016-07-25T04:50:02.961Z,45
2016-07-25T04:51:04.411Z,45
2016-07-25T04:52:04.627Z,45
2016-07-25T04:53:02.222Z,50
2016-07-25T04:54:03.686Z,50
2016-07-25T04:55:02.925Z,50
2016-07-25T04:56:03.827Z,55
2016-07-25T04:57:03.609Z,55
2016-07-25T04:58:03.610Z,55
2016-07-25T04:59:02.185Z,55
2016-07-25T05:00:02.890Z,60
2016-07-25T05:01:02.877Z,60
2016-07-25T05:02:03.579Z,60
2016-07-25T05:03:03.573Z,65
2016-07-25T05:04:02.161Z,65
2016-07-25T05:05:02.854Z,65
2016-07-25T05:06:03.542Z,70
2016-07-25T05:07:03.543Z,70
2016-07-25T05:08:02.116Z,70
2016-07-25T05:09:04.239Z,70
2016-07-25T05:10:03.516Z,70
2016-07-25T05:11:02.805Z,70
2016-07-25T05:12:02.800Z,70
2016-07-25T05:13:03.495Z,70
2016-07-25T05:14:02.105Z,70
2016-07-25T05:15:04.189Z,75
2016-07-25T05:16:04.178Z,75
2016-07-25T05:17:02.758Z,75
2016-07-25T05:18:02.753Z,75
2016-07-25T05:19:02.754Z,75
2016-07-25T05:20:02.029Z,75
2016-07-25T05:21:02.732Z,75
2016-07-25T05:22:03.429Z,75
2016-07-25T05:23:02.716Z,75
2016-07-25T05:24:02.711Z,75
2016-07-25T05:25:03.410Z,70
2016-07-25T05:26:02.691Z,70
2016-07-25T05:27:03.394Z,70
2016-07-25T05:28:03.390Z,70
2016-07-25T05:29:02.672Z,70
2016-07-25T05:30:04.073Z,70
2016-07-25T05:31:02.663Z,70
2016-07-25T05:32:04.067Z,70
2016-07-25T05:33:03.355Z,65
2016-07-25T05:34:02.632Z,65
2016-07-25T05:35:02.634Z,65
2016-07-25T05:36:04.025Z,60
2016-07-25T05:37:02.611Z,55
2016-07-25T05:38:02.600Z,50
2016-07-25T05:39:02.601Z,50
2016-07-25T05:40:03.288Z,50
2016-07-25T05:41:01.883Z,45
2016-07-25T05:42:03.275Z,45
2016-07-25T05:43:03.273Z,45
2016-07-25T05:44:03.263Z,40
2016-07-25T05:45:03.265Z,40
2016-07-25T05:46:02.536Z,45
2016-07-25T05:47:02.542Z,40
2016-07-25T05:48:02.526Z,45
2016-07-25T05:49:03.245Z,45
2016-07-25T05:50:03.226Z,50
2016-07-25T05:51:02.509Z,55
2016-07-25T05:52:02.493Z,65
2016-07-25T05:53:03.904Z,70
2016-07-25T05:54:02.483Z,70
2016-07-25T05:55:01.764Z,70
2016-07-25T05:56:03.885Z,70
2016-07-25T05:57:02.458Z,75
2016-07-25T05:58:01.749Z,80
2016-07-25T05:59:01.734Z,85
2016-07-25T06:00:02.460Z,85
2016-07-25T06:01:01.720Z,90
2016-07-25T06:02:02.434Z,90
2016-07-25T06:03:01.710Z,90
2016-07-25T06:04:02.415Z,85
2016-07-25T06:05:03.107Z,80
2016-07-25T06:06:02.422Z,85
2016-07-25T06:07:02.385Z,90
2016-07-25T06:08:01.671Z,90
2016-07-25T06:09:02.371Z,85
2016-07-25T06:10:02.378Z,80
2016-07-25T06:11:02.377Z,85
2016-07-25T06:12:02.354Z,85
2016-07-25T06:13:02.359Z,85
2016-07-25T06:14:03.050Z,85
2016-07-25T06:15:03.037Z,85
2016-07-25T06:16:03.034Z,90
2016-07-25T06:17:01.615Z,90
2016-07-25T06:18:02.306Z,90
2016-07-25T06:19:03.715Z,95
2016-07-25T06:20:02.308Z,100
2016-07-25T06:21:03.006Z,105
2016-07-25T06:22:02.987Z,115
2016-07-25T06:23:02.976Z,130
2016-07-25T06:24:03.682Z,145
2016-07-25T06:25:04.551Z,150
2016-07-25T06:26:02.267Z,160
2016-07-25T06:27:02.955Z,155
2016-07-25T06:28:03.012Z,155
2016-07-25T06:29:02.941Z,150
2016-07-25T06:30:03.671Z,155
2016-07-25T06:31:02.214Z,165
2016-07-25T06:32:02.209Z,180
2016-07-25T06:33:02.933Z,185
2016-07-25T06:34:03.612Z,185
2016-07-25T06:35:02.197Z,185
2016-07-25T06:36:02.897Z,180
2016-07-25T06:37:03.645Z,175
2016-07-25T06:38:03.660Z,175
2016-07-25T06:39:01.457Z,180
2016-07-25T06:40:01.455Z,185
2016-07-25T06:41:02.147Z,180
2016-07-25T06:42:02.854Z,180
2016-07-25T06:43:01.424Z,170
2016-07-25T06:44:03.802Z,175
2016-07-25T06:45:02.827Z,180
2016-07-25T06:46:01.408Z,165
2016-07-25T06:47:02.115Z,165
2016-07-25T06:48:02.856Z,160
2016-07-25T06:49:02.800Z,155
2016-07-25T06:51:02.794Z,160
2016-07-25T06:52:02.127Z,170
2016-07-25T06:53:01.365Z,190
2016-07-25T06:54:03.470Z,200
2016-07-25T06:55:02.052Z,190
2016-07-25T06:56:02.770Z,180
2016-07-25T06:57:02.060Z,185
2016-07-25T06:58:03.440Z,210
2016-07-25T06:59:01.315Z,220
2016-07-25T07:00:02.728Z,225
2016-07-25T07:01:02.211Z,220
2016-07-25T07:02:02.002Z,210
2016-07-25T07:03:02.702Z,220
2016-07-25T07:04:03.408Z,240
2016-07-25T07:05:04.259Z,235
2016-07-25T07:06:03.403Z,240
2016-07-25T07:07:01.972Z,245
2016-07-25T07:08:03.377Z,235
2016-07-25T07:09:02.166Z,240
2016-07-25T07:10:02.653Z,245
2016-07-25T07:11:03.364Z,240
2016-07-25T07:12:01.228Z,240
2016-07-25T07:13:01.931Z,250
2016-07-25T07:14:02.632Z,250
2016-07-25T07:15:03.331Z,255
2016-07-25T07:16:01.907Z,260
2016-07-25T07:17:02.609Z,265
2016-07-25T07:18:02.600Z,265
2016-07-25T07:19:01.906Z,255
2016-07-25T07:20:01.890Z,250
2016-07-25T07:21:03.294Z,235
2016-07-25T07:22:01.867Z,225
2016-07-25T07:24:01.862Z,180
2016-07-25T07:25:03.263Z,155
2016-07-25T07:26:03.267Z,140
2016-07-25T07:27:03.246Z,135
2016-07-25T07:28:01.831Z,135
2016-07-25T07:29:03.240Z,140
2016-07-25T07:30:01.115Z,150
2016-07-25T07:31:01.105Z,170
2016-07-25T07:32:01.807Z,200
2016-07-25T07:33:01.801Z,225
2016-07-25T07:34:02.505Z,250
2016-07-25T07:35:01.089Z,380
2016-07-25T07:36:01.075Z,705
2016-07-25T07:37:01.784Z,970
2016-07-25T07:38:01.065Z,545
2016-07-25T07:39:03.178Z,875
2016-07-25T07:40:01.059Z,1030
2016-07-25T07:41:03.517Z,985
2016-07-25T07:42:03.885Z,915
2016-07-25T07:43:01.042Z,880
2016-07-25T07:44:03.171Z,795
2016-07-25T07:45:01.735Z,730
2016-07-25T07:46:02.438Z,730
2016-07-25T07:47:02.423Z,580
2016-07-25T07:48:01.709Z,735
2016-07-25T07:49:02.408Z,450
2016-07-25T07:50:03.128Z,470
2016-07-25T07:51:02.402Z,435
2016-07-25T07:52:00.998Z,280
2016-07-25T07:53:02.393Z,235
2016-07-25T07:54:00.974Z,430
2016-07-25T07:55:01.666Z,430
2016-07-25T07:56:02.386Z,325
2016-07-25T07:57:01.666Z,670
2016-07-25T07:58:02.366Z,940
2016-07-25T08:00:00.947Z,1135
2016-07-25T08:01:02.360Z,1130
2016-07-25T08:02:02.360Z,1055
2016-07-25T08:04:03.062Z,1025
2016-07-25T08:05:02.339Z,985
2016-07-25T08:06:02.328Z,970
2016-07-25T08:07:01.618Z,875
2016-07-25T08:08:00.915Z,975
2016-07-25T08:09:02.321Z,990
2016-07-25T08:10:01.610Z,1035
2016-07-25T08:11:03.721Z,1060
2016-07-25T08:12:01.603Z,1065
2016-07-25T08:13:01.611Z,1080
2016-07-25T08:14:02.305Z,950
2016-07-25T08:15:01.600Z,930
2016-07-25T08:16:00.876Z,880
2016-07-25T08:17:02.292Z,605
2016-07-25T08:18:02.284Z,770
2016-07-25T08:19:01.629Z,315
2016-07-25T08:20:01.572Z,280
2016-07-25T08:21:01.569Z,290
2016-07-25T08:22:01.572Z,350
2016-07-25T08:23:01.557Z,305
2016-07-25T08:24:01.568Z,295
2016-07-25T08:25:01.557Z,290
2016-07-25T08:26:02.261Z,315
2016-07-25T08:27:02.967Z,415
2016-07-25T08:28:01.531Z,335
2016-07-25T08:29:03.663Z,310
2016-07-25T08:30:01.535Z,305
2016-07-25T08:31:01.530Z,325
2016-07-25T08:32:01.524Z,330
2016-07-25T08:33:01.537Z,845
2016-07-25T08:34:02.935Z,365
2016-07-25T08:35:03.402Z,445
2016-07-25T08:36:01.507Z,360
2016-07-25T08:37:02.918Z,310
2016-07-25T08:38:02.908Z,1170
2016-07-25T08:39:02.196Z,425
2016-07-25T08:40:01.482Z,390
2016-07-25T08:41:01.493Z,345
2016-07-25T08:42:02.179Z,345
2016-07-25T08:43:01.469Z,380
2016-07-25T08:44:02.574Z,415
2016-07-25T08:45:00.754Z,490
2016-07-25T08:46:02.874Z,480
2016-07-25T08:47:01.456Z,605
2016-07-25T08:48:00.743Z,445
2016-07-25T08:49:01.456Z,410
2016-07-25T08:50:02.149Z,395
2016-07-25T08:51:01.440Z,410
2016-07-25T08:52:01.424Z,440
2016-07-25T08:53:02.194Z,460
2016-07-25T08:54:02.131Z,490
2016-07-25T08:55:01.424Z,475
2016-07-25T08:56:01.416Z,460
2016-07-25T08:57:01.404Z,485
2016-07-25T08:58:02.813Z,500
2016-07-25T08:59:02.105Z,535
2016-07-25T09:00:01.394Z,490
2016-07-25T09:01:02.098Z,400
2016-07-25T09:02:02.798Z,400
2016-07-25T09:03:02.083Z,400
2016-07-25T09:04:00.666Z,395
2016-07-25T09:05:02.074Z,380
2016-07-25T09:06:02.783Z,380
2016-07-25T09:07:02.202Z,395
2016-07-25T09:08:02.780Z,355
2016-07-25T09:09:02.055Z,355
2016-07-25T09:10:02.154Z,360
2016-07-25T09:11:02.066Z,330
2016-07-25T09:12:00.633Z,330
2016-07-25T09:13:01.325Z,385
2016-07-25T09:14:01.393Z,445
2016-07-25T09:15:01.312Z,265
2016-07-25T09:16:02.023Z,260
2016-07-25T09:17:01.512Z,275
2016-07-25T09:18:02.715Z,285
2016-07-25T09:19:00.646Z,355
2016-07-25T09:20:03.415Z,400
2016-07-25T09:21:01.289Z,420
2016-07-25T09:22:01.283Z,280
2016-07-25T09:23:00.576Z,260
2016-07-25T09:24:01.271Z,1310
2016-07-25T09:25:01.285Z,1035
2016-07-25T09:26:01.962Z,750
2016-07-25T09:27:01.972Z,965
2016-07-25T09:28:00.543Z,370
2016-07-25T09:29:01.952Z,550
2016-07-25T09:30:01.243Z,400
2016-07-25T09:31:01.947Z,610
2016-07-25T09:32:01.231Z,515
2016-07-25T09:33:02.642Z,590
2016-07-25T09:34:01.223Z,525
2016-07-25T09:35:01.929Z,760
2016-07-25T09:36:01.214Z,515
2016-07-25T09:37:01.207Z,685
2016-07-25T09:38:01.197Z,680
2016-07-25T09:39:01.907Z,440
2016-07-25T09:40:00.485Z,310
2016-07-25T09:41:01.192Z,270
2016-07-25T09:42:01.184Z,355
2016-07-25T09:43:00.477Z,380
2016-07-25T09:44:01.186Z,365
2016-07-25T09:45:01.179Z,345
2016-07-25T09:46:02.597Z,290
2016-07-25T09:47:00.456Z,290
2016-07-25T09:48:01.156Z,360
2016-07-25T09:49:01.159Z,400
2016-07-25T09:50:01.166Z,230
2016-07-25T09:51:00.438Z,250
2016-07-25T09:52:01.137Z,235
2016-07-25T09:53:01.132Z,230
2016-07-25T09:54:01.846Z,375
2016-07-25T09:55:01.829Z,380
2016-07-25T09:56:01.115Z,360
2016-07-25T09:57:01.113Z,375
2016-07-25T09:58:02.527Z,340
2016-07-25T09:59:00.398Z,280
2016-07-25T10:00:01.101Z,200
2016-07-25T10:01:00.384Z,195
2016-07-25T10:02:01.086Z,215
2016-07-25T10:03:02.512Z,355
2016-07-25T10:04:00.371Z,505
2016-07-25T10:05:00.569Z,325
2016-07-25T10:06:02.490Z,635
2016-07-25T10:07:01.067Z,295
2016-07-25T10:08:02.474Z,415
2016-07-25T10:09:01.768Z,280
2016-07-25T10:10:01.052Z,310
2016-07-25T10:11:00.339Z,575
2016-07-25T10:12:01.041Z,385
2016-07-25T10:13:01.756Z,1250
2016-07-25T10:14:01.028Z,835
2016-07-25T10:15:01.733Z,1355
2016-07-25T10:16:01.731Z,365
2016-07-25T10:17:01.724Z,345
2016-07-25T10:18:00.298Z,295
2016-07-25T10:19:02.433Z,345
2016-07-25T10:20:01.715Z,1945
2016-07-25T10:21:01.009Z,1025
2016-07-25T10:22:00.301Z,860
2016-07-25T10:23:01.701Z,740
2016-07-25T10:24:00.984Z,895
2016-07-25T10:25:01.698Z,810
2016-07-25T10:26:01.689Z,415
2016-07-25T10:27:00.984Z,355
2016-07-25T10:28:00.968Z,2100
2016-07-25T10:29:03.093Z,2005
2016-07-25T10:30:02.381Z,2105
2016-07-25T10:31:01.674Z,2120
2016-07-25T10:32:01.673Z,2110
2016-07-25T10:33:03.082Z,2280
2016-07-25T10:34:01.679Z,2060
2016-07-25T10:35:00.268Z,2190
2016-07-25T10:36:00.253Z,2155
2016-07-25T10:37:00.966Z,410
2016-07-25T10:38:00.962Z,2085
2016-07-25T10:39:01.669Z,1825
2016-07-25T10:40:01.666Z,315
2016-07-25T10:41:02.373Z,230
2016-07-25T10:42:03.083Z,225
2016-07-25T10:43:02.374Z,250
2016-07-25T10:44:01.672Z,430
2016-07-25T10:45:01.174Z,2180
2016-07-25T10:46:01.670Z,2215
2016-07-25T10:47:00.253Z,2190
2016-07-25T10:48:01.670Z,2280
2016-07-25T10:49:00.963Z,2290
2016-07-25T10:50:02.372Z,2285
2016-07-25T10:51:01.672Z,2215
2016-07-25T10:52:02.393Z,2205
2016-07-25T10:53:00.262Z,2250
2016-07-25T10:54:01.672Z,2290
2016-07-25T10:55:01.668Z,2250
2016-07-25T10:56:00.997Z,2145
2016-07-25T10:57:00.961Z,2075
2016-07-25T10:58:00.964Z,2230
2016-07-25T10:59:00.976Z,2230
2016-07-25T11:00:00.981Z,2325
2016-07-25T11:01:00.284Z,2325
2016-07-25T11:02:01.674Z,2165
2016-07-25T11:03:01.683Z,2160
2016-07-25T11:04:00.990Z,2210
2016-07-25T11:05:03.113Z,2120
2016-07-25T11:06:01.701Z,2005
2016-07-25T11:07:00.985Z,1915
2016-07-25T11:08:01.001Z,1895
2016-07-25T11:09:00.276Z,2060
2016-07-25T11:10:01.697Z,1170
2016-07-25T11:11:00.302Z,440
2016-07-25T11:12:01.001Z,2020
2016-07-25T11:13:00.292Z,2180
2016-07-25T11:14:00.301Z,1920
2016-07-25T11:15:00.303Z,1160
2016-07-25T11:16:01.018Z,470
2016-07-25T11:17:01.028Z,2185
2016-07-25T11:18:01.720Z,530
2016-07-25T11:19:01.730Z,485
2016-07-25T11:20:02.433Z,2250
2016-07-25T11:21:01.025Z,510
2016-07-25T11:22:01.025Z,2320
2016-07-25T11:23:01.738Z,2225
2016-07-25T11:24:02.443Z,470
2016-07-25T11:25:00.331Z,1345
2016-07-25T11:26:01.744Z,2250
2016-07-25T11:27:01.740Z,2240
2016-07-25T11:28:01.044Z,2240
2016-07-25T11:29:01.047Z,2295
2016-07-25T11:30:01.047Z,2265
2016-07-25T11:31:00.341Z,2245
2016-07-25T11:32:01.754Z,2160
2016-07-25T11:33:01.761Z,2110
2016-07-25T11:34:01.754Z,2105
2016-07-25T11:35:00.347Z,880
2016-07-25T11:36:00.356Z,2140
2016-07-25T11:37:01.777Z,2210
2016-07-25T11:38:00.359Z,2190
2016-07-25T11:39:01.771Z,2210
2016-07-25T11:40:01.083Z,2200
2016-07-25T11:41:01.077Z,2180
2016-07-25T11:42:01.079Z,2240
2016-07-25T11:43:01.082Z,2310
2016-07-25T11:44:02.536Z,2175
2016-07-25T11:45:01.811Z,1215
2016-07-25T11:46:01.826Z,1410
2016-07-25T11:47:01.805Z,1965
2016-07-25T11:48:01.826Z,2110
2016-07-25T11:49:01.125Z,355
2016-07-25T11:50:01.821Z,270
2016-07-25T11:51:01.112Z,245
2016-07-25T11:52:00.411Z,260
2016-07-25T11:53:01.841Z,260
2016-07-25T11:54:01.823Z,245
2016-07-25T11:55:01.830Z,225
2016-07-25T11:56:01.897Z,215
2016-07-25T11:57:01.127Z,210
2016-07-25T11:58:00.427Z,220
2016-07-25T11:59:01.850Z,230
2016-07-25T12:00:00.436Z,245
2016-07-25T12:01:01.847Z,255
2016-07-25T12:02:00.431Z,265
2016-07-25T12:03:01.144Z,270
2016-07-25T12:04:01.149Z,265
2016-07-25T12:05:00.447Z,255
2016-07-25T12:06:03.282Z,250
2016-07-25T12:07:02.570Z,250
2016-07-25T12:08:02.560Z,250
2016-07-25T12:09:02.049Z,250
2016-07-25T12:10:02.560Z,255
2016-07-25T12:11:01.843Z,260
2016-07-25T12:12:01.844Z,260
2016-07-25T12:13:01.136Z,270
2016-07-25T12:14:01.851Z,275
2016-07-25T12:15:01.838Z,290
2016-07-25T12:16:01.834Z,310
2016-07-25T12:17:01.127Z,315
2016-07-25T12:18:01.121Z,330
2016-07-25T12:19:02.543Z,365
2016-07-25T12:20:01.879Z,380
2016-07-25T12:21:03.273Z,410
2016-07-25T12:22:01.125Z,410
2016-07-25T12:23:01.816Z,440
2016-07-25T12:24:01.110Z,400
2016-07-25T12:25:01.116Z,385
2016-07-25T12:26:03.494Z,380
2016-07-25T12:27:01.125Z,370
2016-07-25T12:28:02.518Z,370
2016-07-25T12:29:02.510Z,360
2016-07-25T12:30:01.091Z,355
2016-07-25T12:31:02.505Z,360
2016-07-25T12:32:01.086Z,355
2016-07-25T12:33:01.085Z,350
2016-07-25T12:34:02.511Z,355
2016-07-25T12:35:01.830Z,380
2016-07-25T12:36:01.779Z,425
2016-07-25T12:37:00.371Z,505
2016-07-25T12:38:01.060Z,590
2016-07-25T12:39:01.763Z,465
2016-07-25T12:40:01.763Z,415
2016-07-25T12:41:01.069Z,380
2016-07-25T12:42:02.484Z,365
2016-07-25T12:43:01.754Z,340
2016-07-25T12:44:02.463Z,330
2016-07-25T12:45:01.947Z,320
2016-07-25T12:46:02.458Z,325
2016-07-25T12:47:01.038Z,335
2016-07-25T12:48:01.943Z,345
2016-07-25T12:49:01.736Z,360
2016-07-25T12:50:02.431Z,385
2016-07-25T12:51:01.736Z,410
2016-07-25T12:52:01.794Z,435
2016-07-25T12:53:01.759Z,375
2016-07-25T12:54:01.005Z,380
2016-07-25T12:55:01.707Z,320
2016-07-25T12:56:02.687Z,270
2016-07-25T12:57:01.963Z,235
2016-07-25T12:58:02.406Z,225
2016-07-25T12:59:03.101Z,200
2016-07-25T13:00:00.288Z,185
2016-07-25T13:01:01.687Z,160
2016-07-25T13:02:02.412Z,130
2016-07-25T13:03:01.002Z,110
2016-07-25T13:04:01.690Z,85
2016-07-25T13:05:00.962Z,65
2016-07-25T13:06:00.962Z,55
2016-07-25T13:07:01.667Z,50
2016-07-25T13:08:00.298Z,45
2016-07-25T13:09:02.512Z,45
2016-07-25T13:10:01.656Z,45
2016-07-25T13:11:00.936Z,45
2016-07-25T13:12:03.059Z,50
2016-07-25T13:13:00.943Z,55
2016-07-25T13:14:02.351Z,60
2016-07-25T13:15:00.212Z,60
2016-07-25T13:16:01.613Z,65
2016-07-25T13:17:00.912Z,70
2016-07-25T13:18:03.031Z,80
2016-07-25T13:19:00.902Z,85
2016-07-25T13:20:01.602Z,90
2016-07-25T13:21:02.312Z,100
2016-07-25T13:22:00.192Z,110
2016-07-25T13:23:00.876Z,120
2016-07-25T13:24:00.877Z,130
2016-07-25T13:25:00.865Z,135
2016-07-25T13:26:00.163Z,145
2016-07-25T13:27:01.563Z,150
2016-07-25T13:28:00.852Z,160
2016-07-25T13:29:00.140Z,170
2016-07-25T13:30:00.834Z,180
2016-07-25T13:31:00.830Z,180
2016-07-25T13:32:00.841Z,185
2016-07-25T13:33:02.279Z,185
2016-07-25T13:34:00.117Z,190
2016-07-25T13:35:00.812Z,200
2016-07-25T13:36:00.798Z,195
2016-07-25T13:37:00.802Z,200
2016-07-25T13:38:00.090Z,205
2016-07-25T13:39:00.789Z,210
2016-07-25T13:40:00.789Z,225
2016-07-25T13:41:00.078Z,240
2016-07-25T13:42:00.776Z,255
2016-07-25T13:43:02.891Z,265
2016-07-25T13:44:00.772Z,280
2016-07-25T13:45:00.060Z,285
2016-07-25T13:46:02.880Z,290
2016-07-25T13:47:00.795Z,290
2016-07-25T13:48:00.751Z,285
2016-07-25T13:49:00.745Z,275
2016-07-25T13:50:00.741Z,265
2016-07-25T13:51:00.737Z,260
2016-07-25T13:52:00.722Z,245
2016-07-25T13:53:00.028Z,230
2016-07-25T13:54:02.128Z,210
2016-07-25T13:55:01.489Z,195
2016-07-25T13:56:02.141Z,180
2016-07-25T13:57:02.126Z,170
2016-07-25T13:58:02.812Z,165
2016-07-25T13:59:02.813Z,155
2016-07-25T14:00:01.390Z,155
2016-07-25T14:01:01.387Z,155
2016-07-25T14:03:01.388Z,165
2016-07-25T14:04:00.666Z,170
2016-07-25T14:05:01.364Z,175
2016-07-25T14:06:01.351Z,175
2016-07-25T14:07:02.071Z,180
2016-07-25T14:08:02.761Z,180
2016-07-25T14:09:02.770Z,180
2016-07-25T14:09:59.941Z,180